This is the latest recevied weather packets stored in our database for station/object KF7IOR. If no packets are shown the sender has not sent any weather packets the latest 10 day(s).
| Time | Temp. | Humidity | Pressure | Rain* | Wind** | Luminosity | Snow |
|---|---|---|---|---|---|---|---|
| 1778138737 | 12.78° C | 74% | 1021.3 hPa | 0 mm | - | 0 W/m² | - |
| 1778135438 | 12.78° C | 74% | 1021.2 hPa | 0 mm | - | 0 W/m² | - |
| 1778133037 | 12.78° C | 75% | 1021.3 hPa | 0 mm | - | 0 W/m² | - |
| 1778132136 | 12.78° C | 75% | 1021.3 hPa | 0 mm | - | 0 W/m² | - |
| 1778131845 | 12.78° C | 76% | 1021.3 hPa | 0 mm | - | 0 W/m² | - |
| 1778129139 | 13.33° C | 73% | 1021.2 hPa | 0 mm | - | 0 W/m² | - |
| 1778128836 | 13.89° C | 73% | 1021.2 hPa | 0 mm | - | 0 W/m² | - |
| 1778125540 | 14.44° C | 71% | 1020.7 hPa | 0 mm | - | 0 W/m² | - |
| 1778124035 | 15° C | 71% | 1020.4 hPa | 0 mm | - | 0 W/m² | - |
| 1778123739 | 15° C | 71% | 1020.3 hPa | 0 mm | - | 0 W/m² | - |
| 1778121336 | 16.11° C | 69% | 1019.8 hPa | 0 mm | - | 40 W/m² | - |
| 1778118635 | 17.22° C | 67% | 1019.8 hPa | 0 mm | - | 111 W/m² | - |
| 1778118037 | 17.22° C | 67% | 1019.9 hPa | 0 mm | - | 200 W/m² | - |
| 1778114750 | 18.33° C | 64% | 1019.8 hPa | 0 mm | - | 227 W/m² | - |
| 1778114135 | 18.33° C | 64% | 1019.8 hPa | 0 mm | - | 199 W/m² | - |
| 1778113236 | 19.44° C | 63% | 1019.7 hPa | 0 mm | - | 211 W/m² | - |
| 1778112637 | 19.44° C | 63% | 1019.7 hPa | 0 mm | - | 207 W/m² | - |
| 1778112049 | 19.44° C | 65% | 1019.6 hPa | 0 mm | - | 232 W/m² | - |
| 1778111146 | 20° C | 64% | 1019.6 hPa | 0 mm | - | 251 W/m² | - |
| 1778110247 | 20.56° C | 63% | 1019.6 hPa | 0 mm | - | 308 W/m² | - |
| 1778104235 | 19.44° C | 66% | 1020.2 hPa | 0 mm | - | 285 W/m² | - |
| 1778099447 | 18.33° C | 70% | 1020.5 hPa | 0 mm | - | 401 W/m² | - |
| 1778098545 | 17.22° C | 70% | 1020.4 hPa | 0 mm | - | 397 W/m² | - |
| 1778097935 | 17.78° C | 71% | 1020.6 hPa | 0 mm | - | 371 W/m² | - |
| 1778097663 | 17.22° C | 72% | 1020.6 hPa | 0 mm | - | 306 W/m² | - |
* Rain latest hour (hover to see other rain measurements)
** Current wind speed in m/s (hover to see current wind gust speed)